SND1 GCXO-LDDU
Flight info
| Callsign | SND1 |
|---|---|
| Flight time | 4h 21m |
| Altitude | 38000 |
| Route | KORAL UG5 SONSO UN871 OSDAM UM985 BARPA M985 PIMOS M445 RIXUR N851 MHN M603 RIPAL DCT ELSAG DCT APSUX DCT ERIKA DCT AIOSA |
| Aircraft | A319/M-SDE3FGHIRWY/LB1 |
Departure
| Time | 2026-04-29 01:51 |
|---|---|
| Airport | Tenerife Norte-Ciudad de La Laguna Airport (GCXO) |
Arrival
| Time | 2026-04-29 06:13 |
|---|---|
| Airport | Dubrovnik Ruđer Bošković Airport (LDDU) |
| Time | Latitude | Longitude | Altitude | Speed | Heading |
|---|---|---|---|---|---|
| 2026-04-29 01:23 | 28.48643 | -16.34542 | 2052 ft | 0 kts | 23° |
| 2026-04-29 01:43 | 28.48638 | -16.34544 | 2051 ft | 3 kts | 23° |
| 2026-04-29 01:43 | 28.48614 | -16.34556 | 2051 ft | 4 kts | 23° |
| 2026-04-29 01:43 | 28.48589 | -16.34568 | 2052 ft | 4 kts | 22° |
| 2026-04-29 01:44 | 28.48564 | -16.34580 | 2052 ft | 4 kts | 27° |
| 2026-04-29 01:44 | 28.48542 | -16.34597 | 2052 ft | 4 kts | 56° |
| 2026-04-29 01:44 | 28.48536 | -16.34618 | 2052 ft | 1 kts | 111° |
| 2026-04-29 01:46 | 28.48536 | -16.34617 | 2052 ft | 1 kts | 111° |
| 2026-04-29 01:46 | 28.48526 | -16.34588 | 2051 ft | 7 kts | 112° |
| 2026-04-29 01:46 | 28.48501 | -16.34515 | 2050 ft | 13 kts | 109° |
| 2026-04-29 01:47 | 28.48466 | -16.34407 | 2048 ft | 16 kts | 111° |
| 2026-04-29 01:47 | 28.48425 | -16.34285 | 2047 ft | 17 kts | 110° |
| 2026-04-29 01:47 | 28.48380 | -16.34151 | 2044 ft | 19 kts | 111° |
| 2026-04-29 01:47 | 28.48330 | -16.34001 | 2045 ft | 21 kts | 110° |
| 2026-04-29 01:48 | 28.48277 | -16.33838 | 2040 ft | 23 kts | 110° |
| 2026-04-29 01:48 | 28.48219 | -16.33663 | 2037 ft | 25 kts | 110° |
| 2026-04-29 01:48 | 28.48157 | -16.33476 | 2039 ft | 26 kts | 111° |
| 2026-04-29 01:48 | 28.48092 | -16.33281 | 2028 ft | 28 kts | 111° |
| 2026-04-29 01:49 | 28.48040 | -16.33126 | 2034 ft | 19 kts | 110° |
| 2026-04-29 01:49 | 28.47993 | -16.32981 | 2029 ft | 20 kts | 110° |
| 2026-04-29 01:49 | 28.47941 | -16.32824 | 2026 ft | 22 kts | 110° |
| 2026-04-29 01:49 | 28.47894 | -16.32685 | 2020 ft | 15 kts | 110° |
| 2026-04-29 01:50 | 28.47850 | -16.32586 | 2017 ft | 15 kts | 136° |
| 2026-04-29 01:50 | 28.47780 | -16.32532 | 2017 ft | 11 kts | 173° |
| 2026-04-29 01:50 | 28.47739 | -16.32567 | 2018 ft | 7 kts | 259° |
| 2026-04-29 01:50 | 28.47756 | -16.32623 | 2019 ft | 12 kts | 291° |
| 2026-04-29 01:51 | 28.47883 | -16.33001 | 2023 ft | 91 kts | 290° |
| 2026-04-29 01:51 | 28.48190 | -16.33926 | 2049 ft | 155 kts | 291° |
| 2026-04-29 01:51 | 28.48584 | -16.35112 | 2660 ft | 162 kts | 291° |
| 2026-04-29 01:51 | 28.49005 | -16.36325 | 3389 ft | 168 kts | 292° |
| 2026-04-29 01:52 | 28.49294 | -16.37149 | 3839 ft | 175 kts | 292° |
| 2026-04-29 01:52 | 28.49779 | -16.38522 | 4231 ft | 198 kts | 291° |
| 2026-04-29 01:52 | 28.50324 | -16.40076 | 4652 ft | 225 kts | 291° |
| 2026-04-29 01:52 | 28.50913 | -16.41775 | 5448 ft | 234 kts | 291° |
| 2026-04-29 01:53 | 28.51521 | -16.43525 | 6148 ft | 241 kts | 291° |
| 2026-04-29 01:53 | 28.52134 | -16.45290 | 6646 ft | 240 kts | 291° |
| 2026-04-29 01:53 | 28.52748 | -16.47061 | 7120 ft | 241 kts | 291° |
| 2026-04-29 01:53 | 28.53363 | -16.48844 | 7603 ft | 243 kts | 290° |
| 2026-04-29 01:54 | 28.54013 | -16.50626 | 8089 ft | 245 kts | 297° |
| 2026-04-29 01:54 | 28.55194 | -16.52028 | 8589 ft | 251 kts | 328° |
| 2026-04-29 01:54 | 28.56872 | -16.52575 | 9094 ft | 256 kts | 358° |
| 2026-04-29 01:54 | 28.58598 | -16.52148 | 9606 ft | 261 kts | 21° |
| 2026-04-29 01:55 | 28.60215 | -16.51136 | 10114 ft | 265 kts | 37° |
| 2026-04-29 01:55 | 28.61510 | -16.49607 | 10590 ft | 283 kts | 56° |
| 2026-04-29 01:55 | 28.62323 | -16.47493 | 11073 ft | 302 kts | 78° |
| 2026-04-29 01:55 | 28.62369 | -16.45073 | 11549 ft | 316 kts | 101° |
| 2026-04-29 01:56 | 28.61545 | -16.42672 | 11886 ft | 339 kts | 121° |
| 2026-04-29 01:56 | 28.60342 | -16.40256 | 12167 ft | 362 kts | 121° |
| 2026-04-29 01:56 | 28.59062 | -16.37711 | 12637 ft | 377 kts | 121° |
| 2026-04-29 01:56 | 28.57750 | -16.35094 | 13365 ft | 383 kts | 121° |
| 2026-04-29 01:57 | 28.56426 | -16.32437 | 14095 ft | 388 kts | 120° |
| 2026-04-29 01:57 | 28.55339 | -16.29606 | 14770 ft | 394 kts | 108° |
| 2026-04-29 01:57 | 28.54763 | -16.26534 | 15470 ft | 400 kts | 97° |
| 2026-04-29 01:57 | 28.54734 | -16.23347 | 16141 ft | 406 kts | 85° |
| 2026-04-29 01:58 | 28.55270 | -16.20184 | 16822 ft | 410 kts | 75° |
| 2026-04-29 01:58 | 28.56026 | -16.17040 | 17495 ft | 415 kts | 74° |
| 2026-04-29 01:58 | 28.56792 | -16.13854 | 18167 ft | 419 kts | 74° |
| 2026-04-29 01:58 | 28.57562 | -16.10642 | 18758 ft | 423 kts | 74° |
| 2026-04-29 01:59 | 28.58339 | -16.07397 | 19335 ft | 427 kts | 75° |
| 2026-04-29 01:59 | 28.59121 | -16.04118 | 19873 ft | 431 kts | 75° |
| 2026-04-29 01:59 | 28.59906 | -16.00809 | 20442 ft | 435 kts | 75° |
| 2026-04-29 01:59 | 28.60692 | -15.97474 | 20984 ft | 438 kts | 75° |
| 2026-04-29 02:00 | 28.61485 | -15.94113 | 21520 ft | 441 kts | 75° |
| 2026-04-29 02:00 | 28.62285 | -15.90724 | 22047 ft | 445 kts | 75° |
| 2026-04-29 02:00 | 28.63092 | -15.87308 | 22566 ft | 448 kts | 75° |
| 2026-04-29 02:00 | 28.63904 | -15.83876 | 23072 ft | 452 kts | 75° |
| 2026-04-29 02:01 | 28.64726 | -15.80407 | 23564 ft | 455 kts | 75° |
| 2026-04-29 02:01 | 28.65550 | -15.76920 | 23970 ft | 458 kts | 75° |
| 2026-04-29 02:01 | 28.66379 | -15.73406 | 24389 ft | 461 kts | 75° |
| 2026-04-29 02:01 | 28.67208 | -15.69877 | 24811 ft | 463 kts | 75° |
| 2026-04-29 02:02 | 28.68042 | -15.66319 | 25214 ft | 465 kts | 75° |
| 2026-04-29 02:02 | 28.68878 | -15.62751 | 25621 ft | 468 kts | 75° |
| 2026-04-29 02:02 | 28.69718 | -15.59160 | 26023 ft | 470 kts | 75° |
| 2026-04-29 02:02 | 28.70560 | -15.55557 | 26420 ft | 472 kts | 75° |
| 2026-04-29 02:03 | 28.71403 | -15.51940 | 26803 ft | 474 kts | 75° |
| 2026-04-29 02:03 | 28.72253 | -15.48296 | 27181 ft | 476 kts | 75° |
| 2026-04-29 02:03 | 28.73105 | -15.44634 | 27553 ft | 478 kts | 75° |
| 2026-04-29 02:03 | 28.73946 | -15.41013 | 27912 ft | 481 kts | 76° |
| 2026-04-29 02:04 | 28.74802 | -15.37322 | 28271 ft | 483 kts | 76° |
| 2026-04-29 02:04 | 28.75672 | -15.33564 | 28663 ft | 485 kts | 75° |
| 2026-04-29 02:04 | 28.76536 | -15.29840 | 28940 ft | 489 kts | 75° |
| 2026-04-29 02:04 | 28.77407 | -15.26086 | 29228 ft | 491 kts | 76° |
| 2026-04-29 02:05 | 28.78278 | -15.22332 | 29733 ft | 488 kts | 76° |
| 2026-04-29 02:05 | 28.79142 | -15.18593 | 30259 ft | 486 kts | 76° |
| 2026-04-29 02:05 | 28.80000 | -15.14876 | 30664 ft | 485 kts | 76° |
| 2026-04-29 02:05 | 28.80845 | -15.11198 | 31023 ft | 485 kts | 76° |
| 2026-04-29 02:06 | 28.81697 | -15.07470 | 31390 ft | 486 kts | 76° |
| 2026-04-29 02:06 | 28.82549 | -15.03734 | 31768 ft | 486 kts | 76° |
| 2026-04-29 02:06 | 28.83398 | -15.00009 | 32142 ft | 486 kts | 76° |
| 2026-04-29 02:06 | 28.84248 | -14.96275 | 32519 ft | 487 kts | 76° |
| 2026-04-29 02:07 | 28.85102 | -14.92534 | 32900 ft | 487 kts | 76° |
| 2026-04-29 02:07 | 28.85956 | -14.88795 | 33286 ft | 487 kts | 76° |
| 2026-04-29 02:07 | 28.86812 | -14.85053 | 33666 ft | 487 kts | 76° |
| 2026-04-29 02:07 | 28.87665 | -14.81313 | 34049 ft | 488 kts | 76° |
| 2026-04-29 02:08 | 28.88516 | -14.77570 | 34389 ft | 488 kts | 76° |
| 2026-04-29 02:08 | 28.89368 | -14.73819 | 34755 ft | 487 kts | 76° |
| 2026-04-29 02:08 | 28.90221 | -14.70066 | 35106 ft | 487 kts | 75° |
| 2026-04-29 02:08 | 28.91070 | -14.66322 | 35451 ft | 487 kts | 75° |
| 2026-04-29 02:09 | 28.91917 | -14.62576 | 35787 ft | 487 kts | 75° |
| 2026-04-29 02:09 | 28.92762 | -14.58840 | 36108 ft | 487 kts | 75° |
| 2026-04-29 02:09 | 28.93608 | -14.55100 | 36428 ft | 486 kts | 75° |
| 2026-04-29 02:09 | 28.94453 | -14.51359 | 36734 ft | 486 kts | 75° |
| 2026-04-29 02:10 | 28.95287 | -14.47656 | 36981 ft | 487 kts | 75° |
| 2026-04-29 02:10 | 28.96127 | -14.43914 | 37039 ft | 487 kts | 75° |
| 2026-04-29 02:10 | 28.97803 | -14.36426 | 37036 ft | 486 kts | 76° |
| 2026-04-29 02:11 | 28.99475 | -14.28932 | 37032 ft | 486 kts | 76° |
| 2026-04-29 02:11 | 29.01142 | -14.21453 | 37034 ft | 486 kts | 76° |
| 2026-04-29 02:12 | 29.02805 | -14.13971 | 37033 ft | 486 kts | 76° |
| 2026-04-29 02:12 | 29.04464 | -14.06485 | 37040 ft | 486 kts | 76° |
| 2026-04-29 02:13 | 29.06115 | -13.99040 | 37042 ft | 486 kts | 76° |
| 2026-04-29 02:13 | 29.07778 | -13.91506 | 37038 ft | 485 kts | 76° |
| 2026-04-29 02:14 | 29.09404 | -13.84077 | 37036 ft | 485 kts | 76° |
| 2026-04-29 02:14 | 29.11044 | -13.76583 | 37030 ft | 485 kts | 76° |
| 2026-04-29 02:15 | 29.12679 | -13.69101 | 37027 ft | 485 kts | 76° |
| 2026-04-29 02:15 | 29.14307 | -13.61606 | 37027 ft | 485 kts | 76° |
| 2026-04-29 02:16 | 29.15981 | -13.54146 | 37032 ft | 484 kts | 72° |
| 2026-04-29 02:16 | 29.18937 | -13.47262 | 37030 ft | 482 kts | 54° |
| 2026-04-29 02:17 | 29.22798 | -13.40987 | 37034 ft | 482 kts | 54° |
| 2026-04-29 02:17 | 29.26637 | -13.34693 | 37039 ft | 482 kts | 54° |
| 2026-04-29 02:18 | 29.30471 | -13.28390 | 37041 ft | 482 kts | 54° |
| 2026-04-29 02:18 | 29.34307 | -13.22088 | 37041 ft | 482 kts | 54° |
| 2026-04-29 02:19 | 29.38148 | -13.15781 | 37036 ft | 482 kts | 54° |
| 2026-04-29 02:19 | 29.41958 | -13.09520 | 37034 ft | 481 kts | 54° |
| 2026-04-29 02:20 | 29.45787 | -13.03215 | 37032 ft | 481 kts | 54° |
| 2026-04-29 02:20 | 29.49604 | -12.96911 | 37027 ft | 481 kts | 54° |
| 2026-04-29 02:21 | 29.53418 | -12.90610 | 37025 ft | 480 kts | 54° |
| 2026-04-29 02:21 | 29.57228 | -12.84305 | 37021 ft | 480 kts | 54° |
| 2026-04-29 02:22 | 29.61034 | -12.77994 | 37019 ft | 480 kts | 54° |
| 2026-04-29 02:22 | 29.64831 | -12.71685 | 37013 ft | 480 kts | 54° |
| 2026-04-29 02:23 | 29.68626 | -12.65368 | 37015 ft | 480 kts | 54° |
| 2026-04-29 02:23 | 29.72416 | -12.59049 | 37014 ft | 480 kts | 54° |
| 2026-04-29 02:24 | 29.76198 | -12.52714 | 37015 ft | 480 kts | 54° |
| 2026-04-29 02:25 | 29.81811 | -12.43218 | 37020 ft | 480 kts | 54° |
| 2026-04-29 02:25 | 29.85561 | -12.36846 | 37019 ft | 480 kts | 54° |
| 2026-04-29 02:26 | 29.89310 | -12.30473 | 37020 ft | 480 kts | 54° |
| 2026-04-29 02:26 | 29.93061 | -12.24097 | 37017 ft | 480 kts | 54° |
| 2026-04-29 02:27 | 29.96810 | -12.17721 | 37014 ft | 480 kts | 54° |
| 2026-04-29 02:27 | 30.00560 | -12.11335 | 37017 ft | 481 kts | 54° |
| 2026-04-29 02:28 | 30.04313 | -12.04950 | 37018 ft | 481 kts | 54° |
| 2026-04-29 02:28 | 30.08102 | -11.98564 | 37022 ft | 481 kts | 54° |
| 2026-04-29 02:29 | 30.11881 | -11.92188 | 37019 ft | 481 kts | 54° |
| 2026-04-29 02:29 | 30.15626 | -11.85839 | 37021 ft | 481 kts | 54° |
| 2026-04-29 02:30 | 30.19387 | -11.79441 | 37020 ft | 481 kts | 54° |
| 2026-04-29 02:30 | 30.23146 | -11.73036 | 37017 ft | 481 kts | 54° |
| 2026-04-29 02:31 | 30.26901 | -11.66642 | 37016 ft | 480 kts | 54° |
| 2026-04-29 02:31 | 30.30655 | -11.60240 | 37013 ft | 480 kts | 54° |
| 2026-04-29 02:32 | 30.34403 | -11.53835 | 37010 ft | 480 kts | 54° |
| 2026-04-29 02:32 | 30.38146 | -11.47434 | 37009 ft | 480 kts | 54° |
| 2026-04-29 02:33 | 30.41885 | -11.41015 | 37006 ft | 480 kts | 54° |
| 2026-04-29 02:33 | 30.44990 | -11.35673 | 37007 ft | 480 kts | 54° |
| 2026-04-29 02:34 | 30.48718 | -11.29253 | 37006 ft | 480 kts | 54° |
| 2026-04-29 02:34 | 30.53057 | -11.21788 | 37010 ft | 480 kts | 54° |
| 2026-04-29 02:35 | 30.56786 | -11.15365 | 37008 ft | 480 kts | 54° |
| 2026-04-29 02:35 | 30.59909 | -11.09970 | 37001 ft | 480 kts | 54° |
| 2026-04-29 02:36 | 30.63627 | -11.03525 | 37004 ft | 480 kts | 54° |
| 2026-04-29 02:36 | 30.67343 | -10.97069 | 37002 ft | 480 kts | 54° |
| 2026-04-29 02:37 | 30.71058 | -10.90622 | 36999 ft | 480 kts | 54° |
| 2026-04-29 02:37 | 30.74781 | -10.84161 | 36998 ft | 480 kts | 54° |
| 2026-04-29 02:38 | 30.78463 | -10.77734 | 36998 ft | 481 kts | 54° |
| 2026-04-29 02:38 | 30.82172 | -10.71261 | 37001 ft | 481 kts | 54° |
| 2026-04-29 02:39 | 30.85881 | -10.64785 | 36998 ft | 481 kts | 54° |
| 2026-04-29 02:39 | 30.89580 | -10.58292 | 36998 ft | 481 kts | 54° |
| 2026-04-29 02:40 | 30.93281 | -10.51802 | 36995 ft | 481 kts | 54° |
| 2026-04-29 02:40 | 30.96987 | -10.45301 | 36996 ft | 481 kts | 54° |
| 2026-04-29 02:41 | 31.00687 | -10.38787 | 36994 ft | 481 kts | 54° |
| 2026-04-29 02:41 | 31.04383 | -10.32273 | 36994 ft | 482 kts | 54° |
| 2026-04-29 02:42 | 31.08080 | -10.25750 | 36992 ft | 482 kts | 54° |
| 2026-04-29 02:42 | 31.11769 | -10.19217 | 36992 ft | 482 kts | 54° |
| 2026-04-29 02:43 | 31.15463 | -10.12668 | 36992 ft | 482 kts | 54° |
| 2026-04-29 02:43 | 31.19153 | -10.06118 | 36989 ft | 483 kts | 54° |
| 2026-04-29 02:44 | 31.22817 | -9.99605 | 36993 ft | 483 kts | 54° |
| 2026-04-29 02:44 | 31.26506 | -9.93045 | 36993 ft | 483 kts | 54° |
| 2026-04-29 02:45 | 31.30190 | -9.86477 | 36993 ft | 483 kts | 54° |
| 2026-04-29 02:45 | 31.33875 | -9.79893 | 36990 ft | 483 kts | 54° |
| 2026-04-29 02:46 | 31.37555 | -9.73312 | 36992 ft | 483 kts | 52° |
| 2026-04-29 02:46 | 31.42043 | -9.67575 | 36995 ft | 474 kts | 34° |
| 2026-04-29 02:47 | 31.47516 | -9.63383 | 36991 ft | 469 kts | 27° |
| 2026-04-29 02:47 | 31.53085 | -9.59379 | 36996 ft | 470 kts | 27° |
| 2026-04-29 02:48 | 31.58654 | -9.55344 | 36997 ft | 470 kts | 27° |
| 2026-04-29 02:48 | 31.64228 | -9.51303 | 36999 ft | 470 kts | 27° |
| 2026-04-29 02:49 | 31.69792 | -9.47277 | 37004 ft | 470 kts | 27° |
| 2026-04-29 02:49 | 31.75361 | -9.43248 | 37004 ft | 470 kts | 27° |
| 2026-04-29 02:50 | 31.80896 | -9.39237 | 37001 ft | 470 kts | 27° |
| 2026-04-29 02:50 | 31.86465 | -9.35177 | 37005 ft | 470 kts | 27° |
| 2026-04-29 02:51 | 31.92020 | -9.31118 | 37004 ft | 470 kts | 27° |
| 2026-04-29 02:51 | 31.97584 | -9.27053 | 37004 ft | 470 kts | 27° |
| 2026-04-29 02:52 | 32.03142 | -9.23004 | 37001 ft | 470 kts | 27° |
| 2026-04-29 02:52 | 32.08701 | -9.18950 | 37000 ft | 470 kts | 27° |
| 2026-04-29 02:53 | 32.14225 | -9.14910 | 37001 ft | 470 kts | 27° |
| 2026-04-29 02:53 | 32.19773 | -9.10837 | 36999 ft | 469 kts | 27° |
| 2026-04-29 02:54 | 32.25321 | -9.06753 | 37001 ft | 469 kts | 27° |
| 2026-04-29 02:54 | 32.30863 | -9.02676 | 36998 ft | 469 kts | 27° |
| 2026-04-29 02:55 | 32.36420 | -8.98581 | 36996 ft | 469 kts | 27° |
| 2026-04-29 02:55 | 32.41960 | -8.94488 | 36999 ft | 469 kts | 27° |
| 2026-04-29 02:56 | 32.47508 | -8.90394 | 36994 ft | 469 kts | 27° |
| 2026-04-29 02:56 | 32.53044 | -8.86300 | 36999 ft | 469 kts | 27° |
| 2026-04-29 02:57 | 32.58552 | -8.82222 | 36994 ft | 469 kts | 27° |
| 2026-04-29 02:57 | 32.64095 | -8.78114 | 36998 ft | 469 kts | 27° |
| 2026-04-29 02:58 | 32.69632 | -8.74002 | 36986 ft | 469 kts | 27° |
| 2026-04-29 02:58 | 32.75165 | -8.69875 | 36982 ft | 470 kts | 27° |
| 2026-04-29 02:59 | 32.80696 | -8.65736 | 36991 ft | 470 kts | 27° |
| 2026-04-29 02:59 | 32.86228 | -8.61601 | 36988 ft | 469 kts | 27° |
| 2026-04-29 03:00 | 32.91763 | -8.57471 | 36989 ft | 469 kts | 27° |
| 2026-04-29 03:00 | 32.97292 | -8.53341 | 36987 ft | 469 kts | 27° |
| 2026-04-29 03:01 | 33.02828 | -8.49201 | 36988 ft | 469 kts | 27° |
| 2026-04-29 03:01 | 33.08357 | -8.45040 | 36991 ft | 469 kts | 27° |
| 2026-04-29 03:02 | 33.13877 | -8.40886 | 36996 ft | 469 kts | 27° |
| 2026-04-29 03:02 | 33.19362 | -8.36761 | 36987 ft | 469 kts | 27° |
| 2026-04-29 03:03 | 33.24884 | -8.32595 | 36987 ft | 469 kts | 27° |
| 2026-04-29 03:03 | 33.30408 | -8.28436 | 36981 ft | 469 kts | 27° |
| 2026-04-29 03:04 | 33.35926 | -8.24288 | 37040 ft | 467 kts | 32° |
| 2026-04-29 03:04 | 33.41423 | -8.20134 | 37033 ft | 466 kts | 32° |
| 2026-04-29 03:05 | 33.46900 | -8.15991 | 37031 ft | 465 kts | 32° |
| 2026-04-29 03:05 | 33.52334 | -8.11874 | 37029 ft | 465 kts | 32° |
| 2026-04-29 03:06 | 33.57789 | -8.07730 | 37032 ft | 464 kts | 32° |
| 2026-04-29 03:06 | 33.63244 | -8.03583 | 37025 ft | 464 kts | 32° |
| 2026-04-29 03:07 | 33.68713 | -7.99431 | 37023 ft | 464 kts | 32° |
| 2026-04-29 03:07 | 33.74167 | -7.95287 | 37022 ft | 464 kts | 32° |
| 2026-04-29 03:08 | 33.79620 | -7.91130 | 37021 ft | 464 kts | 32° |
| 2026-04-29 03:08 | 33.85069 | -7.86962 | 37021 ft | 464 kts | 32° |
| 2026-04-29 03:09 | 33.90516 | -7.82782 | 37020 ft | 464 kts | 32° |
| 2026-04-29 03:09 | 33.95957 | -7.78609 | 37020 ft | 464 kts | 32° |
| 2026-04-29 03:10 | 34.01398 | -7.74436 | 37019 ft | 464 kts | 32° |
| 2026-04-29 03:10 | 34.06839 | -7.70257 | 37018 ft | 463 kts | 32° |
| 2026-04-29 03:11 | 34.12269 | -7.66070 | 37016 ft | 463 kts | 32° |
| 2026-04-29 03:11 | 34.17668 | -7.61909 | 37017 ft | 464 kts | 32° |
| 2026-04-29 03:12 | 34.23113 | -7.57712 | 37016 ft | 463 kts | 32° |
| 2026-04-29 03:12 | 34.28538 | -7.53513 | 37016 ft | 463 kts | 32° |
| 2026-04-29 03:13 | 34.33968 | -7.49296 | 37016 ft | 463 kts | 32° |
| 2026-04-29 03:13 | 34.39394 | -7.45083 | 37016 ft | 463 kts | 32° |
| 2026-04-29 03:14 | 34.44830 | -7.40866 | 37016 ft | 463 kts | 32° |
| 2026-04-29 03:14 | 34.50253 | -7.36648 | 37016 ft | 463 kts | 33° |
| 2026-04-29 03:15 | 34.55679 | -7.32416 | 37016 ft | 463 kts | 33° |
| 2026-04-29 03:15 | 34.61073 | -7.28203 | 37017 ft | 463 kts | 33° |
| 2026-04-29 03:16 | 34.66499 | -7.23963 | 37017 ft | 463 kts | 33° |
| 2026-04-29 03:16 | 34.71918 | -7.19723 | 37016 ft | 463 kts | 33° |
| 2026-04-29 03:17 | 34.76455 | -7.16159 | 37016 ft | 463 kts | 33° |
| 2026-04-29 03:17 | 34.81866 | -7.11900 | 37015 ft | 463 kts | 33° |
| 2026-04-29 03:18 | 34.87243 | -7.07656 | 37014 ft | 463 kts | 33° |
| 2026-04-29 03:18 | 34.92657 | -7.03402 | 37013 ft | 463 kts | 33° |
| 2026-04-29 03:19 | 34.98075 | -6.99130 | 37012 ft | 463 kts | 33° |
| 2026-04-29 03:19 | 35.03482 | -6.94844 | 37011 ft | 463 kts | 33° |
| 2026-04-29 03:20 | 35.08880 | -6.90566 | 37010 ft | 463 kts | 33° |
| 2026-04-29 03:20 | 35.14299 | -6.86270 | 37009 ft | 463 kts | 33° |
| 2026-04-29 03:21 | 35.19696 | -6.81980 | 37008 ft | 463 kts | 33° |
| 2026-04-29 03:21 | 35.25091 | -6.77676 | 37006 ft | 463 kts | 33° |
| 2026-04-29 03:22 | 35.30461 | -6.73403 | 37005 ft | 463 kts | 33° |
| 2026-04-29 03:22 | 35.35239 | -6.68182 | 37002 ft | 462 kts | 51° |
| 2026-04-29 03:23 | 35.38678 | -6.61533 | 37000 ft | 462 kts | 60° |
| 2026-04-29 03:23 | 35.41911 | -6.54730 | 36999 ft | 462 kts | 60° |
| 2026-04-29 03:24 | 35.45162 | -6.47920 | 36999 ft | 462 kts | 59° |
| 2026-04-29 03:24 | 35.48534 | -6.41199 | 37000 ft | 462 kts | 58° |
| 2026-04-29 03:25 | 35.51975 | -6.34530 | 37001 ft | 463 kts | 58° |
| 2026-04-29 03:25 | 35.55404 | -6.27827 | 37002 ft | 463 kts | 58° |
| 2026-04-29 03:26 | 35.58795 | -6.21101 | 37003 ft | 463 kts | 58° |
| 2026-04-29 03:26 | 35.62170 | -6.14361 | 37005 ft | 463 kts | 58° |
| 2026-04-29 03:27 | 35.65557 | -6.07623 | 37006 ft | 463 kts | 58° |
| 2026-04-29 03:27 | 35.68940 | -6.00890 | 37007 ft | 463 kts | 58° |
| 2026-04-29 03:28 | 35.72317 | -5.94136 | 37008 ft | 463 kts | 58° |
| 2026-04-29 03:28 | 35.75310 | -5.87121 | 37009 ft | 463 kts | 64° |
| 2026-04-29 03:29 | 35.78112 | -5.79972 | 37010 ft | 463 kts | 64° |
| 2026-04-29 03:29 | 35.80899 | -5.72879 | 37011 ft | 463 kts | 64° |
| 2026-04-29 03:30 | 35.83707 | -5.65731 | 37013 ft | 463 kts | 64° |
| 2026-04-29 03:30 | 35.86563 | -5.58611 | 37015 ft | 463 kts | 63° |
| 2026-04-29 03:31 | 35.90908 | -5.47954 | 37014 ft | 463 kts | 63° |
| 2026-04-29 03:31 | 35.93789 | -5.40837 | 37015 ft | 463 kts | 64° |
| 2026-04-29 03:32 | 35.96652 | -5.33700 | 37016 ft | 463 kts | 64° |
| 2026-04-29 03:32 | 35.99508 | -5.26564 | 37016 ft | 463 kts | 64° |
| 2026-04-29 03:33 | 36.02395 | -5.19449 | 37017 ft | 464 kts | 63° |
| 2026-04-29 03:33 | 36.05385 | -5.12384 | 37017 ft | 463 kts | 62° |
| 2026-04-29 03:34 | 36.08382 | -5.05335 | 37015 ft | 463 kts | 62° |
| 2026-04-29 03:34 | 36.11350 | -4.98262 | 37013 ft | 463 kts | 63° |
| 2026-04-29 03:35 | 36.14329 | -4.91210 | 37008 ft | 463 kts | 59° |
| 2026-04-29 03:35 | 36.18373 | -4.85043 | 37005 ft | 462 kts | 46° |
| 2026-04-29 03:36 | 36.22840 | -4.79303 | 37004 ft | 463 kts | 46° |
| 2026-04-29 03:36 | 36.27265 | -4.73584 | 37004 ft | 463 kts | 46° |
| 2026-04-29 03:37 | 36.31725 | -4.67825 | 37005 ft | 463 kts | 46° |
| 2026-04-29 03:37 | 36.36178 | -4.62048 | 37007 ft | 463 kts | 46° |
| 2026-04-29 03:38 | 36.40631 | -4.56253 | 37012 ft | 464 kts | 46° |
| 2026-04-29 03:38 | 36.45085 | -4.50455 | 37014 ft | 464 kts | 46° |
| 2026-04-29 03:39 | 36.49542 | -4.44659 | 37014 ft | 463 kts | 46° |
| 2026-04-29 03:39 | 36.53995 | -4.38854 | 37015 ft | 464 kts | 46° |
| 2026-04-29 03:40 | 36.58439 | -4.33036 | 37018 ft | 464 kts | 46° |
| 2026-04-29 03:40 | 36.62885 | -4.27205 | 37020 ft | 464 kts | 46° |
| 2026-04-29 03:41 | 36.67337 | -4.21367 | 37021 ft | 464 kts | 46° |
| 2026-04-29 03:41 | 36.71760 | -4.15571 | 37022 ft | 464 kts | 46° |
| 2026-04-29 03:42 | 36.76208 | -4.09725 | 37022 ft | 464 kts | 46° |
| 2026-04-29 03:42 | 36.80631 | -4.03859 | 37022 ft | 464 kts | 47° |
| 2026-04-29 03:43 | 36.85063 | -3.97999 | 37020 ft | 464 kts | 46° |
| 2026-04-29 03:43 | 36.89497 | -3.92149 | 37018 ft | 464 kts | 46° |
| 2026-04-29 03:44 | 36.93921 | -3.86276 | 37016 ft | 464 kts | 47° |
| 2026-04-29 03:44 | 36.98333 | -3.80397 | 37015 ft | 463 kts | 47° |
| 2026-04-29 03:45 | 37.02745 | -3.74526 | 37013 ft | 463 kts | 46° |
| 2026-04-29 03:45 | 37.07167 | -3.68650 | 37011 ft | 463 kts | 47° |
| 2026-04-29 03:46 | 37.11262 | -3.62446 | 37009 ft | 463 kts | 58° |
| 2026-04-29 03:46 | 37.14188 | -3.55262 | 37010 ft | 463 kts | 64° |
| 2026-04-29 03:47 | 37.17061 | -3.48030 | 37013 ft | 464 kts | 63° |
| 2026-04-29 03:47 | 37.19937 | -3.40782 | 37016 ft | 464 kts | 64° |
| 2026-04-29 03:48 | 37.22801 | -3.33529 | 37017 ft | 464 kts | 64° |
| 2026-04-29 03:48 | 37.25646 | -3.26313 | 37017 ft | 464 kts | 64° |
| 2026-04-29 03:49 | 37.28517 | -3.19000 | 37016 ft | 463 kts | 64° |
| 2026-04-29 03:49 | 37.31352 | -3.11729 | 37016 ft | 463 kts | 64° |
| 2026-04-29 03:50 | 37.34182 | -3.04458 | 37016 ft | 463 kts | 64° |
| 2026-04-29 03:50 | 37.37013 | -2.97185 | 37014 ft | 463 kts | 64° |
| 2026-04-29 03:51 | 37.39834 | -2.89892 | 37014 ft | 463 kts | 64° |
| 2026-04-29 03:51 | 37.42637 | -2.82648 | 37015 ft | 464 kts | 64° |
| 2026-04-29 03:52 | 37.45463 | -2.75353 | 37017 ft | 464 kts | 64° |
| 2026-04-29 03:52 | 37.48277 | -2.68044 | 37019 ft | 464 kts | 64° |
| 2026-04-29 03:53 | 37.51087 | -2.60728 | 37019 ft | 464 kts | 64° |
| 2026-04-29 03:53 | 37.53895 | -2.53414 | 37017 ft | 463 kts | 64° |
| 2026-04-29 03:54 | 37.56699 | -2.46092 | 37016 ft | 463 kts | 64° |
| 2026-04-29 03:54 | 37.59501 | -2.38756 | 37016 ft | 464 kts | 64° |
| 2026-04-29 03:55 | 37.62272 | -2.31470 | 37016 ft | 463 kts | 64° |
| 2026-04-29 03:55 | 37.65059 | -2.24142 | 37015 ft | 463 kts | 64° |
| 2026-04-29 03:56 | 37.67855 | -2.16804 | 37016 ft | 464 kts | 64° |
| 2026-04-29 03:56 | 37.70636 | -2.09467 | 37015 ft | 463 kts | 64° |
| 2026-04-29 03:57 | 37.72961 | -2.03304 | 37016 ft | 463 kts | 64° |
| 2026-04-29 03:57 | 37.75738 | -1.95950 | 37016 ft | 463 kts | 64° |
| 2026-04-29 03:58 | 37.78505 | -1.88587 | 37016 ft | 464 kts | 65° |
| 2026-04-29 03:58 | 37.81248 | -1.81254 | 37018 ft | 464 kts | 65° |
| 2026-04-29 03:59 | 37.84004 | -1.73882 | 37018 ft | 464 kts | 65° |
| 2026-04-29 03:59 | 37.86761 | -1.66496 | 37017 ft | 463 kts | 65° |
| 2026-04-29 04:00 | 37.89511 | -1.59116 | 37016 ft | 463 kts | 65° |
| 2026-04-29 04:00 | 37.92265 | -1.51729 | 37015 ft | 463 kts | 65° |
| 2026-04-29 04:01 | 37.95000 | -1.44345 | 37014 ft | 463 kts | 65° |
| 2026-04-29 04:01 | 37.97729 | -1.36938 | 37013 ft | 463 kts | 65° |
| 2026-04-29 04:02 | 38.00433 | -1.29582 | 37012 ft | 463 kts | 65° |
| 2026-04-29 04:02 | 38.03160 | -1.22187 | 37011 ft | 463 kts | 65° |
| 2026-04-29 04:03 | 38.05882 | -1.14778 | 37010 ft | 463 kts | 65° |
| 2026-04-29 04:03 | 38.08593 | -1.07363 | 37011 ft | 463 kts | 65° |
| 2026-04-29 04:04 | 38.11299 | -0.99935 | 37011 ft | 463 kts | 65° |
| 2026-04-29 04:04 | 38.14006 | -0.92500 | 37013 ft | 464 kts | 65° |
| 2026-04-29 04:05 | 38.16705 | -0.85066 | 37015 ft | 464 kts | 65° |
| 2026-04-29 04:05 | 38.19409 | -0.77613 | 37018 ft | 464 kts | 65° |
| 2026-04-29 04:06 | 38.22100 | -0.70151 | 37020 ft | 464 kts | 65° |
| 2026-04-29 04:06 | 38.24794 | -0.62695 | 37020 ft | 464 kts | 65° |
| 2026-04-29 04:07 | 38.27461 | -0.55220 | 37020 ft | 464 kts | 66° |
| 2026-04-29 04:07 | 38.29932 | -0.47633 | 37019 ft | 464 kts | 68° |
| 2026-04-29 04:08 | 38.32295 | -0.39985 | 37020 ft | 464 kts | 69° |
| 2026-04-29 04:08 | 38.34685 | -0.32361 | 37019 ft | 464 kts | 68° |
| 2026-04-29 04:09 | 38.37130 | -0.24739 | 37020 ft | 464 kts | 67° |
| 2026-04-29 04:09 | 38.39663 | -0.17173 | 37022 ft | 464 kts | 66° |
| 2026-04-29 04:10 | 38.42222 | -0.09609 | 37025 ft | 464 kts | 67° |
| 2026-04-29 04:10 | 38.44740 | -0.02038 | 37027 ft | 464 kts | 67° |
| 2026-04-29 04:11 | 38.47216 | 0.05573 | 37022 ft | 464 kts | 68° |
| 2026-04-29 04:11 | 38.49649 | 0.13207 | 37025 ft | 464 kts | 68° |
| 2026-04-29 04:12 | 38.52081 | 0.20838 | 37021 ft | 464 kts | 68° |
| 2026-04-29 04:12 | 38.54520 | 0.28472 | 37019 ft | 464 kts | 68° |
| 2026-04-29 04:13 | 38.56935 | 0.36062 | 37018 ft | 464 kts | 68° |
| 2026-04-29 04:13 | 38.59356 | 0.43698 | 37018 ft | 464 kts | 68° |
| 2026-04-29 04:14 | 38.61776 | 0.51337 | 37019 ft | 464 kts | 68° |
| 2026-04-29 04:14 | 38.64203 | 0.58992 | 37021 ft | 464 kts | 68° |
| 2026-04-29 04:15 | 38.66619 | 0.66648 | 37022 ft | 464 kts | 68° |
| 2026-04-29 04:15 | 38.69031 | 0.74314 | 37021 ft | 464 kts | 68° |
| 2026-04-29 04:16 | 38.71436 | 0.81971 | 37020 ft | 464 kts | 68° |
| 2026-04-29 04:16 | 38.73827 | 0.89645 | 37017 ft | 463 kts | 68° |
| 2026-04-29 04:17 | 38.76209 | 0.97310 | 37013 ft | 463 kts | 68° |
| 2026-04-29 04:17 | 38.78592 | 1.04966 | 37009 ft | 463 kts | 68° |
| 2026-04-29 04:18 | 38.80972 | 1.12627 | 37007 ft | 463 kts | 68° |
| 2026-04-29 04:18 | 38.83342 | 1.20303 | 37007 ft | 463 kts | 69° |
| 2026-04-29 04:19 | 38.85707 | 1.27989 | 37007 ft | 463 kts | 69° |
| 2026-04-29 04:19 | 38.88072 | 1.35677 | 37008 ft | 463 kts | 69° |
| 2026-04-29 04:20 | 38.90426 | 1.43365 | 37008 ft | 463 kts | 69° |
| 2026-04-29 04:20 | 38.92768 | 1.51076 | 37008 ft | 463 kts | 69° |
| 2026-04-29 04:21 | 38.95055 | 1.58822 | 37007 ft | 463 kts | 69° |
| 2026-04-29 04:21 | 38.97312 | 1.66565 | 37008 ft | 463 kts | 69° |
| 2026-04-29 04:22 | 38.99578 | 1.74315 | 37008 ft | 463 kts | 69° |
| 2026-04-29 04:22 | 39.01848 | 1.82061 | 37008 ft | 463 kts | 69° |
| 2026-04-29 04:23 | 39.04122 | 1.89821 | 37010 ft | 463 kts | 69° |
| 2026-04-29 04:23 | 39.06384 | 1.97581 | 37012 ft | 463 kts | 70° |
| 2026-04-29 04:24 | 39.08640 | 2.05355 | 37014 ft | 464 kts | 70° |
| 2026-04-29 04:24 | 39.10889 | 2.13144 | 37015 ft | 464 kts | 70° |
| 2026-04-29 04:25 | 39.13137 | 2.20929 | 37017 ft | 464 kts | 70° |
| 2026-04-29 04:25 | 39.15383 | 2.28716 | 37018 ft | 464 kts | 70° |
| 2026-04-29 04:26 | 39.17619 | 2.36508 | 37018 ft | 464 kts | 70° |
| 2026-04-29 04:26 | 39.19835 | 2.44259 | 37018 ft | 464 kts | 70° |
| 2026-04-29 04:27 | 39.22061 | 2.52066 | 37019 ft | 464 kts | 70° |
| 2026-04-29 04:27 | 39.24276 | 2.59879 | 37020 ft | 464 kts | 70° |
| 2026-04-29 04:28 | 39.26486 | 2.67706 | 37049 ft | 465 kts | 70° |
| 2026-04-29 04:28 | 39.27592 | 2.71624 | 37405 ft | 464 kts | 70° |
| 2026-04-29 04:28 | 39.28700 | 2.75540 | 37760 ft | 463 kts | 70° |
| 2026-04-29 04:29 | 39.29808 | 2.79447 | 38090 ft | 463 kts | 70° |
| 2026-04-29 04:29 | 39.30912 | 2.83349 | 38391 ft | 463 kts | 70° |
| 2026-04-29 04:29 | 39.32013 | 2.87255 | 38683 ft | 463 kts | 70° |
| 2026-04-29 04:29 | 39.33112 | 2.91167 | 38941 ft | 464 kts | 70° |
| 2026-04-29 04:30 | 39.35310 | 2.99008 | 39009 ft | 464 kts | 70° |
| 2026-04-29 04:31 | 39.38592 | 3.10759 | 39014 ft | 464 kts | 70° |
| 2026-04-29 04:31 | 39.40777 | 3.18609 | 39009 ft | 464 kts | 70° |
| 2026-04-29 04:32 | 39.43106 | 3.26376 | 39012 ft | 464 kts | 63° |
| 2026-04-29 04:32 | 39.46370 | 3.33580 | 39020 ft | 464 kts | 59° |
| 2026-04-29 04:33 | 39.49667 | 3.40719 | 39028 ft | 465 kts | 59° |
| 2026-04-29 04:33 | 39.52975 | 3.47928 | 39029 ft | 465 kts | 59° |
| 2026-04-29 04:34 | 39.56278 | 3.55139 | 39031 ft | 466 kts | 59° |
| 2026-04-29 04:34 | 39.59579 | 3.62362 | 39031 ft | 466 kts | 59° |
| 2026-04-29 04:35 | 39.62874 | 3.69601 | 39032 ft | 466 kts | 59° |
| 2026-04-29 04:35 | 39.66160 | 3.76842 | 39032 ft | 466 kts | 59° |
| 2026-04-29 04:36 | 39.69454 | 3.84090 | 39032 ft | 466 kts | 59° |
| 2026-04-29 04:36 | 39.72738 | 3.91336 | 39031 ft | 465 kts | 59° |
| 2026-04-29 04:37 | 39.76016 | 3.98596 | 39030 ft | 465 kts | 59° |
| 2026-04-29 04:37 | 39.79286 | 4.05858 | 39029 ft | 465 kts | 60° |
| 2026-04-29 04:38 | 39.82558 | 4.13132 | 39029 ft | 465 kts | 60° |
| 2026-04-29 04:38 | 39.85744 | 4.20400 | 39011 ft | 465 kts | 65° |
| 2026-04-29 04:39 | 39.87502 | 4.27054 | 39029 ft | 464 kts | 75° |
| 2026-04-29 04:39 | 39.89171 | 4.35131 | 39027 ft | 464 kts | 75° |
| 2026-04-29 04:40 | 39.90850 | 4.43253 | 39016 ft | 464 kts | 75° |
| 2026-04-29 04:40 | 39.92530 | 4.51376 | 39026 ft | 464 kts | 75° |
| 2026-04-29 04:41 | 39.94202 | 4.59502 | 39026 ft | 464 kts | 75° |
| 2026-04-29 04:41 | 39.95863 | 4.67647 | 39027 ft | 465 kts | 75° |
| 2026-04-29 04:42 | 39.97519 | 4.75793 | 39027 ft | 465 kts | 75° |
| 2026-04-29 04:42 | 39.99198 | 4.83923 | 39016 ft | 464 kts | 75° |
| 2026-04-29 04:43 | 40.00921 | 4.92050 | 39027 ft | 464 kts | 75° |
| 2026-04-29 04:43 | 40.02643 | 5.00176 | 39021 ft | 465 kts | 75° |
| 2026-04-29 04:44 | 40.04340 | 5.08328 | 39027 ft | 465 kts | 75° |
| 2026-04-29 04:44 | 40.06024 | 5.16480 | 39027 ft | 465 kts | 75° |
| 2026-04-29 04:45 | 40.07711 | 5.24628 | 39028 ft | 465 kts | 75° |
| 2026-04-29 04:45 | 40.09392 | 5.32793 | 39030 ft | 465 kts | 75° |
| 2026-04-29 04:46 | 40.11049 | 5.40910 | 39032 ft | 466 kts | 75° |
| 2026-04-29 04:46 | 40.12735 | 5.49142 | 39033 ft | 466 kts | 75° |
| 2026-04-29 04:47 | 40.14394 | 5.57277 | 39034 ft | 466 kts | 75° |
| 2026-04-29 04:47 | 40.16058 | 5.65472 | 39034 ft | 466 kts | 75° |
| 2026-04-29 04:48 | 40.17718 | 5.73665 | 39034 ft | 466 kts | 75° |
| 2026-04-29 04:48 | 40.19358 | 5.81857 | 39033 ft | 466 kts | 75° |
| 2026-04-29 04:49 | 40.20997 | 5.90071 | 39032 ft | 465 kts | 75° |
| 2026-04-29 04:49 | 40.22627 | 5.98261 | 39031 ft | 465 kts | 75° |
| 2026-04-29 04:50 | 40.24261 | 6.06460 | 39030 ft | 465 kts | 76° |
| 2026-04-29 04:50 | 40.25884 | 6.14670 | 39030 ft | 465 kts | 76° |
| 2026-04-29 04:51 | 40.27499 | 6.22880 | 39030 ft | 465 kts | 76° |
| 2026-04-29 04:51 | 40.29109 | 6.31090 | 39031 ft | 465 kts | 76° |
| 2026-04-29 04:52 | 40.30705 | 6.39260 | 39030 ft | 465 kts | 76° |
| 2026-04-29 04:52 | 40.32303 | 6.47473 | 39030 ft | 465 kts | 76° |
| 2026-04-29 04:53 | 40.33907 | 6.55701 | 39029 ft | 465 kts | 76° |
| 2026-04-29 04:53 | 40.35496 | 6.63930 | 39029 ft | 465 kts | 76° |
| 2026-04-29 04:54 | 40.37074 | 6.72157 | 39029 ft | 465 kts | 76° |
| 2026-04-29 04:54 | 40.38646 | 6.80400 | 39030 ft | 465 kts | 76° |
| 2026-04-29 04:55 | 40.40211 | 6.88637 | 39031 ft | 465 kts | 76° |
| 2026-04-29 04:55 | 40.41779 | 6.96871 | 39031 ft | 465 kts | 76° |
| 2026-04-29 04:56 | 40.43345 | 7.05102 | 39030 ft | 465 kts | 76° |
| 2026-04-29 04:56 | 40.44900 | 7.13360 | 39030 ft | 465 kts | 76° |
| 2026-04-29 04:57 | 40.46443 | 7.21617 | 39029 ft | 465 kts | 76° |
| 2026-04-29 04:57 | 40.47975 | 7.29868 | 39029 ft | 465 kts | 76° |
| 2026-04-29 04:58 | 40.49508 | 7.38126 | 39028 ft | 465 kts | 76° |
| 2026-04-29 04:58 | 40.51046 | 7.46389 | 39028 ft | 465 kts | 76° |
| 2026-04-29 04:59 | 40.52566 | 7.54649 | 39029 ft | 465 kts | 76° |
| 2026-04-29 04:59 | 40.54072 | 7.62867 | 39029 ft | 465 kts | 77° |
| 2026-04-29 05:00 | 40.55583 | 7.71151 | 39030 ft | 465 kts | 77° |
| 2026-04-29 05:00 | 40.57094 | 7.79434 | 39031 ft | 465 kts | 77° |
| 2026-04-29 05:01 | 40.58593 | 7.87728 | 39031 ft | 465 kts | 77° |
| 2026-04-29 05:01 | 40.60084 | 7.96016 | 39030 ft | 465 kts | 77° |
| 2026-04-29 05:02 | 40.61655 | 8.04279 | 39030 ft | 465 kts | 74° |
| 2026-04-29 05:02 | 40.63589 | 8.12400 | 39029 ft | 465 kts | 72° |
| 2026-04-29 05:03 | 40.65634 | 8.20493 | 39030 ft | 465 kts | 72° |
| 2026-04-29 05:03 | 40.67593 | 8.28618 | 39028 ft | 465 kts | 73° |
| 2026-04-29 05:04 | 40.69475 | 8.36773 | 39027 ft | 465 kts | 73° |
| 2026-04-29 05:04 | 40.71331 | 8.44873 | 39013 ft | 464 kts | 73° |
| 2026-04-29 05:05 | 40.73221 | 8.53017 | 39027 ft | 464 kts | 73° |
| 2026-04-29 05:05 | 40.75111 | 8.61168 | 39027 ft | 465 kts | 73° |
| 2026-04-29 05:06 | 40.76995 | 8.69324 | 39027 ft | 465 kts | 73° |
| 2026-04-29 05:06 | 40.78872 | 8.77498 | 39027 ft | 465 kts | 73° |
| 2026-04-29 05:07 | 40.80732 | 8.85678 | 39029 ft | 465 kts | 73° |
| 2026-04-29 05:07 | 40.82603 | 8.93870 | 39029 ft | 465 kts | 73° |
| 2026-04-29 05:08 | 40.84466 | 9.02050 | 39032 ft | 466 kts | 73° |
| 2026-04-29 05:08 | 40.86323 | 9.10254 | 39032 ft | 466 kts | 73° |
| 2026-04-29 05:09 | 40.88166 | 9.18454 | 39033 ft | 466 kts | 73° |
| 2026-04-29 05:09 | 40.90017 | 9.26677 | 39033 ft | 466 kts | 73° |
| 2026-04-29 05:10 | 40.91854 | 9.34892 | 39034 ft | 466 kts | 73° |
| 2026-04-29 05:10 | 40.93672 | 9.43054 | 39032 ft | 466 kts | 73° |
| 2026-04-29 05:11 | 40.95500 | 9.51283 | 39033 ft | 466 kts | 74° |
| 2026-04-29 05:11 | 40.97313 | 9.59513 | 39032 ft | 466 kts | 74° |
| 2026-04-29 05:12 | 40.99120 | 9.67737 | 39031 ft | 465 kts | 74° |
| 2026-04-29 05:12 | 41.00929 | 9.75964 | 39029 ft | 465 kts | 74° |
| 2026-04-29 05:13 | 41.02733 | 9.84201 | 39031 ft | 466 kts | 74° |
| 2026-04-29 05:13 | 41.04522 | 9.92398 | 39031 ft | 465 kts | 74° |
| 2026-04-29 05:14 | 41.06306 | 10.00634 | 39030 ft | 465 kts | 74° |
| 2026-04-29 05:14 | 41.08087 | 10.08881 | 39028 ft | 465 kts | 74° |
| 2026-04-29 05:15 | 41.09863 | 10.17138 | 39029 ft | 465 kts | 74° |
| 2026-04-29 05:15 | 41.11634 | 10.25401 | 39030 ft | 465 kts | 74° |
| 2026-04-29 05:16 | 41.13407 | 10.33665 | 39030 ft | 465 kts | 74° |
| 2026-04-29 05:16 | 41.15163 | 10.41883 | 39031 ft | 465 kts | 74° |
| 2026-04-29 05:17 | 41.16638 | 10.48814 | 39031 ft | 466 kts | 74° |
| 2026-04-29 05:17 | 41.18378 | 10.57089 | 39029 ft | 465 kts | 75° |
| 2026-04-29 05:18 | 41.19822 | 10.65469 | 39028 ft | 465 kts | 79° |
| 2026-04-29 05:18 | 41.20940 | 10.73927 | 39029 ft | 465 kts | 81° |
| 2026-04-29 05:19 | 41.22018 | 10.82349 | 39029 ft | 465 kts | 80° |
| 2026-04-29 05:19 | 41.23178 | 10.90793 | 39027 ft | 465 kts | 79° |
| 2026-04-29 05:20 | 41.24374 | 10.99246 | 39028 ft | 465 kts | 79° |
| 2026-04-29 05:20 | 41.25554 | 11.07706 | 39029 ft | 465 kts | 80° |
| 2026-04-29 05:21 | 41.26716 | 11.16172 | 39030 ft | 465 kts | 80° |
| 2026-04-29 05:21 | 41.27869 | 11.24640 | 39031 ft | 466 kts | 80° |
| 2026-04-29 05:22 | 41.29021 | 11.33116 | 39032 ft | 466 kts | 80° |
| 2026-04-29 05:22 | 41.30164 | 11.41544 | 39032 ft | 465 kts | 80° |
| 2026-04-29 05:23 | 41.31305 | 11.50028 | 39031 ft | 465 kts | 80° |
| 2026-04-29 05:23 | 41.32440 | 11.58508 | 39030 ft | 465 kts | 80° |
| 2026-04-29 05:24 | 41.33568 | 11.66974 | 39028 ft | 465 kts | 80° |
| 2026-04-29 05:24 | 41.34684 | 11.75453 | 39030 ft | 465 kts | 80° |
| 2026-04-29 05:25 | 41.35796 | 11.83939 | 39030 ft | 465 kts | 80° |
| 2026-04-29 05:25 | 41.36900 | 11.92370 | 39030 ft | 465 kts | 80° |
| 2026-04-29 05:26 | 41.38005 | 12.00876 | 39030 ft | 465 kts | 80° |
| 2026-04-29 05:26 | 41.39099 | 12.09368 | 39030 ft | 465 kts | 81° |
| 2026-04-29 05:27 | 41.40182 | 12.17863 | 39030 ft | 465 kts | 81° |
| 2026-04-29 05:27 | 41.41796 | 12.30597 | 39027 ft | 464 kts | 81° |
| 2026-04-29 05:28 | 41.42868 | 12.39087 | 39026 ft | 464 kts | 81° |
| 2026-04-29 05:28 | 41.43936 | 12.47583 | 39027 ft | 465 kts | 81° |
| 2026-04-29 05:29 | 41.44993 | 12.56077 | 39027 ft | 465 kts | 81° |
| 2026-04-29 05:29 | 41.46042 | 12.64569 | 39027 ft | 464 kts | 81° |
| 2026-04-29 05:30 | 41.47080 | 12.73029 | 39027 ft | 465 kts | 81° |
| 2026-04-29 05:30 | 41.48122 | 12.81531 | 39027 ft | 465 kts | 81° |
| 2026-04-29 05:31 | 41.49165 | 12.90040 | 39027 ft | 465 kts | 81° |
| 2026-04-29 05:31 | 41.50193 | 12.98550 | 39026 ft | 464 kts | 81° |
| 2026-04-29 05:32 | 41.51210 | 13.07060 | 39027 ft | 464 kts | 81° |
| 2026-04-29 05:32 | 41.52224 | 13.15567 | 39027 ft | 464 kts | 81° |
| 2026-04-29 05:33 | 41.53236 | 13.24086 | 39022 ft | 464 kts | 81° |
| 2026-04-29 05:33 | 41.54235 | 13.32603 | 39026 ft | 464 kts | 81° |
| 2026-04-29 05:34 | 41.55229 | 13.41129 | 39024 ft | 464 kts | 81° |
| 2026-04-29 05:34 | 41.56224 | 13.49656 | 39026 ft | 464 kts | 81° |
| 2026-04-29 05:35 | 41.57213 | 13.58171 | 39021 ft | 464 kts | 81° |
| 2026-04-29 05:35 | 41.58187 | 13.66696 | 39010 ft | 464 kts | 82° |
| 2026-04-29 05:36 | 41.59154 | 13.75228 | 39022 ft | 464 kts | 82° |
| 2026-04-29 05:36 | 41.60113 | 13.83768 | 39024 ft | 465 kts | 82° |
| 2026-04-29 05:37 | 41.61070 | 13.92316 | 39028 ft | 465 kts | 82° |
| 2026-04-29 05:37 | 41.62018 | 14.00830 | 39030 ft | 465 kts | 82° |
| 2026-04-29 05:38 | 41.62967 | 14.09390 | 39031 ft | 466 kts | 82° |
| 2026-04-29 05:38 | 41.63898 | 14.17954 | 39031 ft | 465 kts | 82° |
| 2026-04-29 05:39 | 41.64817 | 14.26513 | 39030 ft | 465 kts | 82° |
| 2026-04-29 05:39 | 41.65727 | 14.35071 | 39028 ft | 465 kts | 82° |
| 2026-04-29 05:40 | 41.66632 | 14.43625 | 39027 ft | 464 kts | 82° |
| 2026-04-29 05:40 | 41.67539 | 14.52183 | 39027 ft | 465 kts | 82° |
| 2026-04-29 05:41 | 41.68436 | 14.60752 | 39028 ft | 465 kts | 82° |
| 2026-04-29 05:41 | 41.69328 | 14.69313 | 39027 ft | 465 kts | 82° |
| 2026-04-29 05:42 | 41.70208 | 14.77876 | 39026 ft | 465 kts | 82° |
| 2026-04-29 05:42 | 41.71084 | 14.86444 | 39026 ft | 464 kts | 82° |
| 2026-04-29 05:43 | 41.71951 | 14.95012 | 39018 ft | 464 kts | 82° |
| 2026-04-29 05:43 | 41.72810 | 15.03563 | 39023 ft | 464 kts | 82° |
| 2026-04-29 05:44 | 41.73669 | 15.12131 | 39023 ft | 464 kts | 82° |
| 2026-04-29 05:44 | 41.74521 | 15.20693 | 39025 ft | 464 kts | 83° |
| 2026-04-29 05:45 | 41.75359 | 15.29272 | 39028 ft | 465 kts | 83° |
| 2026-04-29 05:45 | 41.76195 | 15.37863 | 39029 ft | 465 kts | 83° |
| 2026-04-29 05:46 | 41.77031 | 15.46461 | 39030 ft | 465 kts | 83° |
| 2026-04-29 05:46 | 41.77859 | 15.55053 | 39029 ft | 465 kts | 83° |
| 2026-04-29 05:47 | 41.78679 | 15.63641 | 39028 ft | 465 kts | 83° |
| 2026-04-29 05:47 | 41.79495 | 15.72234 | 39028 ft | 465 kts | 83° |
| 2026-04-29 05:48 | 41.80310 | 15.80843 | 39031 ft | 465 kts | 83° |
| 2026-04-29 05:48 | 41.81114 | 15.89457 | 39031 ft | 465 kts | 83° |
| 2026-04-29 05:49 | 41.81902 | 15.98015 | 39030 ft | 465 kts | 83° |
| 2026-04-29 05:49 | 41.82684 | 16.06638 | 39032 ft | 465 kts | 83° |
| 2026-04-29 05:50 | 41.83466 | 16.15257 | 39030 ft | 465 kts | 83° |
| 2026-04-29 05:50 | 41.84237 | 16.23857 | 39029 ft | 465 kts | 83° |
| 2026-04-29 05:51 | 41.85005 | 16.32466 | 39029 ft | 465 kts | 83° |
| 2026-04-29 05:51 | 41.85770 | 16.41075 | 39028 ft | 465 kts | 83° |
| 2026-04-29 05:52 | 41.86525 | 16.49683 | 38845 ft | 464 kts | 83° |
| 2026-04-29 05:52 | 41.86898 | 16.53977 | 38575 ft | 463 kts | 83° |
| 2026-04-29 05:52 | 41.87271 | 16.58270 | 37925 ft | 462 kts | 83° |
| 2026-04-29 05:53 | 41.87638 | 16.62553 | 37193 ft | 462 kts | 83° |
| 2026-04-29 05:53 | 41.88004 | 16.66833 | 36427 ft | 462 kts | 83° |
| 2026-04-29 05:53 | 41.88371 | 16.71098 | 35634 ft | 462 kts | 83° |
| 2026-04-29 05:53 | 41.88739 | 16.75404 | 34768 ft | 463 kts | 84° |
| 2026-04-29 05:54 | 41.89102 | 16.79698 | 33850 ft | 464 kts | 84° |
| 2026-04-29 05:54 | 41.89467 | 16.84021 | 32874 ft | 466 kts | 84° |
| 2026-04-29 05:54 | 41.89829 | 16.88343 | 31845 ft | 467 kts | 84° |
| 2026-04-29 05:54 | 41.90194 | 16.92696 | 30755 ft | 469 kts | 84° |
| 2026-04-29 05:55 | 41.90558 | 16.97055 | 29596 ft | 471 kts | 84° |
| 2026-04-29 05:55 | 41.90922 | 17.01437 | 28361 ft | 473 kts | 84° |
| 2026-04-29 05:55 | 41.91285 | 17.05843 | 27363 ft | 476 kts | 84° |
| 2026-04-29 05:55 | 41.91648 | 17.10267 | 26484 ft | 479 kts | 84° |
| 2026-04-29 05:56 | 41.92015 | 17.14725 | 25603 ft | 481 kts | 83° |
| 2026-04-29 05:56 | 41.92653 | 17.19053 | 24735 ft | 477 kts | 74° |
| 2026-04-29 05:56 | 41.93818 | 17.23204 | 23375 ft | 471 kts | 64° |
| 2026-04-29 05:56 | 41.95511 | 17.26953 | 21867 ft | 468 kts | 53° |
| 2026-04-29 05:57 | 41.97652 | 17.30180 | 20735 ft | 456 kts | 43° |
| 2026-04-29 05:57 | 42.00029 | 17.32925 | 19653 ft | 444 kts | 40° |
| 2026-04-29 05:57 | 42.02366 | 17.35570 | 18597 ft | 434 kts | 40° |
| 2026-04-29 05:57 | 42.04641 | 17.38169 | 17591 ft | 425 kts | 40° |
| 2026-04-29 05:58 | 42.06123 | 17.39870 | 16944 ft | 419 kts | 40° |
| 2026-04-29 05:58 | 42.08328 | 17.42398 | 16004 ft | 414 kts | 40° |
| 2026-04-29 05:58 | 42.10527 | 17.44915 | 15082 ft | 415 kts | 40° |
| 2026-04-29 05:58 | 42.12720 | 17.47422 | 14202 ft | 414 kts | 40° |
| 2026-04-29 05:59 | 42.14913 | 17.49928 | 13339 ft | 412 kts | 40° |
| 2026-04-29 05:59 | 42.17086 | 17.52413 | 12497 ft | 408 kts | 40° |
| 2026-04-29 05:59 | 42.19237 | 17.54870 | 11640 ft | 399 kts | 40° |
| 2026-04-29 05:59 | 42.21312 | 17.57242 | 11042 ft | 380 kts | 40° |
| 2026-04-29 06:00 | 42.23251 | 17.59459 | 10889 ft | 351 kts | 40° |
| 2026-04-29 06:00 | 42.25049 | 17.61518 | 10763 ft | 326 kts | 40° |
| 2026-04-29 06:00 | 42.26727 | 17.63440 | 10586 ft | 307 kts | 40° |
| 2026-04-29 06:00 | 42.28333 | 17.65280 | 10317 ft | 298 kts | 40° |
| 2026-04-29 06:01 | 42.29905 | 17.67083 | 10023 ft | 294 kts | 40° |
| 2026-04-29 06:01 | 42.31439 | 17.68840 | 9622 ft | 292 kts | 40° |
| 2026-04-29 06:01 | 42.33002 | 17.70632 | 9200 ft | 290 kts | 40° |
| 2026-04-29 06:01 | 42.34514 | 17.72372 | 8777 ft | 288 kts | 40° |
| 2026-04-29 06:02 | 42.36031 | 17.74124 | 8342 ft | 286 kts | 40° |
| 2026-04-29 06:02 | 42.37542 | 17.75867 | 7902 ft | 284 kts | 40° |
| 2026-04-29 06:02 | 42.39044 | 17.77599 | 7448 ft | 282 kts | 40° |
| 2026-04-29 06:02 | 42.40531 | 17.79320 | 6998 ft | 281 kts | 40° |
| 2026-04-29 06:03 | 42.42005 | 17.81026 | 6832 ft | 280 kts | 40° |
| 2026-04-29 06:03 | 42.43487 | 17.82741 | 6706 ft | 281 kts | 40° |
| 2026-04-29 06:03 | 42.44972 | 17.84456 | 6582 ft | 280 kts | 40° |
| 2026-04-29 06:03 | 42.46543 | 17.86010 | 6455 ft | 280 kts | 29° |
| 2026-04-29 06:04 | 42.48265 | 17.87234 | 6331 ft | 279 kts | 27° |
| 2026-04-29 06:04 | 42.49983 | 17.88459 | 6204 ft | 279 kts | 27° |
| 2026-04-29 06:04 | 42.51699 | 17.89692 | 5965 ft | 277 kts | 27° |
| 2026-04-29 06:04 | 42.53375 | 17.90896 | 5581 ft | 270 kts | 27° |
| 2026-04-29 06:05 | 42.55023 | 17.92082 | 5195 ft | 266 kts | 28° |
| 2026-04-29 06:05 | 42.56641 | 17.93249 | 4819 ft | 261 kts | 28° |
| 2026-04-29 06:05 | 42.58209 | 17.94378 | 4657 ft | 248 kts | 27° |
| 2026-04-29 06:05 | 42.59702 | 17.95452 | 4491 ft | 238 kts | 27° |
| 2026-04-29 06:06 | 42.61133 | 17.96486 | 4316 ft | 229 kts | 28° |
| 2026-04-29 06:06 | 42.62497 | 17.97472 | 4155 ft | 221 kts | 28° |
| 2026-04-29 06:06 | 42.63829 | 17.98434 | 3988 ft | 214 kts | 28° |
| 2026-04-29 06:06 | 42.65110 | 17.99383 | 3868 ft | 204 kts | 31° |
| 2026-04-29 06:07 | 42.65922 | 18.00842 | 3688 ft | 192 kts | 76° |
| 2026-04-29 06:07 | 42.65732 | 18.02537 | 3534 ft | 180 kts | 117° |
| 2026-04-29 06:07 | 42.65153 | 18.04014 | 3374 ft | 173 kts | 119° |
| 2026-04-29 06:07 | 42.64588 | 18.05429 | 3213 ft | 167 kts | 119° |
| 2026-04-29 06:08 | 42.64046 | 18.06798 | 3067 ft | 162 kts | 119° |
| 2026-04-29 06:08 | 42.63523 | 18.08124 | 2928 ft | 157 kts | 119° |
| 2026-04-29 06:08 | 42.63016 | 18.09410 | 2793 ft | 152 kts | 119° |
| 2026-04-29 06:08 | 42.62542 | 18.10614 | 2733 ft | 136 kts | 119° |
| 2026-04-29 06:09 | 42.62110 | 18.11709 | 2621 ft | 129 kts | 119° |
| 2026-04-29 06:09 | 42.61693 | 18.12766 | 2481 ft | 126 kts | 120° |
| 2026-04-29 06:09 | 42.61283 | 18.13806 | 2333 ft | 125 kts | 120° |
| 2026-04-29 06:09 | 42.60874 | 18.14842 | 2169 ft | 124 kts | 120° |
| 2026-04-29 06:10 | 42.60467 | 18.15873 | 2010 ft | 123 kts | 120° |
| 2026-04-29 06:10 | 42.60062 | 18.16897 | 1848 ft | 123 kts | 120° |
| 2026-04-29 06:10 | 42.59657 | 18.17921 | 1693 ft | 123 kts | 120° |
| 2026-04-29 06:10 | 42.59250 | 18.18938 | 1526 ft | 122 kts | 120° |
| 2026-04-29 06:11 | 42.58856 | 18.19947 | 1369 ft | 122 kts | 119° |
| 2026-04-29 06:11 | 42.58455 | 18.20962 | 1201 ft | 122 kts | 120° |
| 2026-04-29 06:11 | 42.58056 | 18.21976 | 1063 ft | 122 kts | 119° |
| 2026-04-29 06:11 | 42.57656 | 18.22993 | 884 ft | 122 kts | 119° |
| 2026-04-29 06:12 | 42.57259 | 18.24001 | 723 ft | 121 kts | 120° |
| 2026-04-29 06:12 | 42.56860 | 18.25006 | 560 ft | 120 kts | 119° |
| 2026-04-29 06:12 | 42.56490 | 18.25933 | 520 ft | 98 kts | 118° |
| 2026-04-29 06:12 | 42.56235 | 18.26575 | 512 ft | 59 kts | 118° |
| 2026-04-29 06:13 | 42.56077 | 18.26972 | 508 ft | 43 kts | 118° |
| 2026-04-29 06:13 | 42.55960 | 18.27267 | 504 ft | 28 kts | 121° |
| 2026-04-29 06:13 | 42.55829 | 18.27338 | 502 ft | 16 kts | 174° |
| 2026-04-29 06:13 | 42.55787 | 18.27232 | 503 ft | 16 kts | 294° |
| 2026-04-29 06:14 | 42.55842 | 18.27094 | 505 ft | 17 kts | 298° |
| 2026-04-29 06:14 | 42.55901 | 18.26945 | 506 ft | 19 kts | 297° |
| 2026-04-29 06:14 | 42.55965 | 18.26783 | 508 ft | 20 kts | 298° |
| 2026-04-29 06:14 | 42.56034 | 18.26610 | 510 ft | 22 kts | 298° |
| 2026-04-29 06:15 | 42.56106 | 18.26430 | 511 ft | 21 kts | 298° |
| 2026-04-29 06:15 | 42.56156 | 18.26306 | 512 ft | 9 kts | 296° |
| 2026-04-29 06:15 | 42.56129 | 18.26266 | 513 ft | 4 kts | 209° |
| 2026-04-29 06:15 | 42.56111 | 18.26254 | 513 ft | 0 kts | 208° |
| 2026-04-29 06:16 | 42.56110 | 18.26253 | 513 ft | 0 kts | 208° |